createdAt,value
2018-11-03T00:01:59.567Z,9.93
2018-11-03T00:04:30.632Z,8.57
2018-11-03T00:07:02.308Z,13.20
2018-11-03T00:09:33.949Z,9.77
2018-11-03T00:12:05.052Z,8.53
2018-11-03T00:14:36.054Z,10.87
2018-11-03T00:17:07.132Z,9.23
2018-11-03T00:19:38.180Z,9.47
2018-11-03T00:22:09.551Z,8.80
2018-11-03T00:24:40.982Z,12.77
2018-11-03T00:27:12.088Z,8.27
2018-11-03T00:29:43.160Z,7.63
2018-11-03T00:32:14.520Z,8.90
2018-11-03T00:34:46.303Z,8.07
2018-11-03T00:37:18.842Z,8.67
2018-11-03T00:39:49.932Z,7.50
2018-11-03T00:44:53.643Z,7.73
2018-11-03T00:47:24.747Z,7.90
2018-11-03T00:49:56.120Z,10.23
2018-11-03T00:52:27.189Z,8.20
2018-11-03T00:54:58.480Z,8.00
2018-11-03T00:57:29.494Z,8.43
2018-11-03T01:00:00.532Z,6.43
2018-11-03T01:02:31.633Z,7.50
2018-11-03T01:05:02.672Z,11.03
2018-11-03T01:07:33.757Z,12.17
2018-11-03T01:10:05.002Z,11.30
2018-11-03T01:12:37.207Z,9.97
2018-11-03T01:15:18.865Z,9.13
2018-11-03T01:17:50.419Z,8.30
2018-11-03T01:20:21.858Z,7.27
2018-11-03T01:22:53.455Z,8.77
2018-11-03T01:25:24.523Z,7.87
2018-11-03T01:27:55.606Z,8.33
2018-11-03T01:30:26.922Z,6.67
2018-11-03T01:32:58.657Z,7.73
2018-11-03T01:35:29.691Z,7.97
2018-11-03T01:38:00.751Z,6.27
2018-11-03T01:40:31.899Z,7.53
2018-11-03T01:43:03.252Z,7.33
2018-11-03T01:45:34.388Z,6.10
2018-11-03T01:48:05.727Z,8.77
2018-11-03T01:50:37.159Z,7.40
2018-11-03T01:53:08.551Z,11.63
2018-11-03T01:55:39.588Z,9.40
2018-11-03T01:58:11.205Z,5.67
2018-11-03T02:00:42.653Z,8.20
2018-11-03T02:03:13.792Z,7.23
2018-11-03T02:05:44.853Z,10.97
2018-11-03T02:08:15.971Z,8.00
2018-11-03T02:10:47.110Z,10.00
2018-11-03T02:13:20.268Z,6.90
2018-11-03T02:15:51.391Z,10.80
2018-11-03T02:18:22.516Z,7.87
2018-11-03T02:20:53.870Z,8.17
2018-11-03T02:23:24.924Z,8.53
2018-11-03T02:25:55.935Z,8.93
2018-11-03T02:28:28.653Z,8.27
2018-11-03T02:30:59.677Z,9.43
2018-11-03T02:33:30.798Z,7.53
2018-11-03T02:36:03.926Z,8.73
2018-11-03T02:38:35.292Z,11.03
2018-11-03T02:41:06.484Z,11.33
2018-11-03T02:43:37.553Z,10.70
2018-11-03T02:46:08.875Z,8.70
2018-11-03T02:48:39.911Z,10.33
2018-11-03T02:51:11.325Z,11.47
2018-11-03T02:53:42.764Z,7.53
2018-11-03T02:56:14.189Z,9.27
2018-11-03T02:58:45.303Z,9.90
2018-11-03T03:01:16.448Z,6.87
2018-11-03T03:03:47.498Z,12.77
2018-11-03T03:06:18.603Z,9.90
2018-11-03T03:08:50.283Z,13.73
2018-11-03T03:11:21.731Z,8.23
2018-11-03T03:13:52.845Z,10.20
2018-11-03T03:16:25.998Z,12.13
2018-11-03T03:18:57.130Z,9.13
2018-11-03T03:21:28.611Z,10.83
2018-11-03T03:23:59.691Z,10.97
2018-11-03T03:26:30.762Z,9.53
2018-11-03T03:29:01.966Z,13.00
2018-11-03T03:31:32.986Z,10.73
2018-11-03T03:34:04.056Z,11.10
2018-11-03T03:36:35.161Z,11.23
2018-11-03T03:39:08.549Z,9.17
2018-11-03T03:41:40.341Z,11.73
2018-11-03T03:44:11.418Z,11.20
2018-11-03T03:46:42.448Z,9.23
2018-11-03T03:49:13.680Z,9.10
2018-11-03T03:51:47.979Z,11.40
2018-11-03T03:54:19.383Z,8.63
2018-11-03T03:56:50.799Z,9.60
2018-11-03T03:59:21.799Z,12.30
2018-11-03T04:01:52.873Z,11.57
2018-11-03T04:04:24.229Z,11.00
2018-11-03T04:06:55.346Z,11.17
2018-11-03T04:09:26.423Z,8.23
2018-11-03T04:11:57.905Z,11.03
2018-11-03T04:14:29.516Z,10.50
2018-11-03T04:17:00.564Z,11.60
2018-11-03T04:19:31.669Z,12.43
2018-11-03T04:22:02.964Z,10.93
2018-11-03T04:24:34.023Z,8.50
2018-11-03T04:27:05.480Z,8.90
2018-11-03T04:29:36.512Z,11.50
2018-11-03T04:32:07.567Z,10.67
2018-11-03T04:34:38.798Z,10.10
2018-11-03T04:37:09.933Z,11.27
2018-11-03T04:39:41.220Z,9.43
2018-11-03T04:42:13.344Z,13.10
2018-11-03T04:44:44.716Z,8.20
2018-11-03T04:47:16.185Z,13.63
2018-11-03T04:49:47.290Z,9.37
2018-11-03T04:52:18.771Z,10.40
2018-11-03T04:54:50.723Z,13.27
2018-11-03T04:57:21.821Z,8.37
2018-11-03T04:59:52.848Z,11.53
2018-11-03T05:02:24.274Z,12.47
2018-11-03T05:04:55.392Z,8.30
2018-11-03T05:07:26.402Z,10.17
2018-11-03T05:09:57.529Z,10.40
2018-11-03T05:12:28.503Z,11.77
2018-11-03T05:15:00.199Z,12.93
2018-11-03T05:17:31.220Z,10.00
2018-11-03T05:20:02.298Z,11.93
2018-11-03T05:22:33.333Z,13.00
2018-11-03T05:25:04.561Z,11.33
2018-11-03T05:27:38.133Z,13.30
2018-11-03T05:30:09.764Z,11.30
2018-11-03T05:32:41.169Z,12.73
2018-11-03T05:35:14.413Z,12.37
2018-11-03T05:37:45.487Z,10.67
2018-11-03T05:40:16.505Z,9.37
2018-11-03T05:42:47.886Z,12.83
2018-11-03T05:45:18.961Z,10.70
2018-11-03T05:47:50.407Z,10.30
2018-11-03T05:50:21.832Z,12.03
2018-11-03T05:52:52.937Z,11.40
2018-11-03T05:55:24.139Z,12.03
2018-11-03T05:57:55.338Z,8.63
2018-11-03T06:00:29.965Z,10.83
2018-11-03T06:03:01.159Z,13.23
2018-11-03T06:05:32.200Z,11.63
2018-11-03T06:08:03.900Z,10.40
2018-11-03T06:10:35.408Z,12.67
2018-11-03T06:13:09.085Z,10.40
2018-11-03T06:15:40.919Z,12.87
2018-11-03T06:18:12.242Z,12.90
2018-11-03T06:20:43.710Z,11.13
2018-11-03T06:23:15.113Z,15.20
2018-11-03T06:25:51.953Z,11.93
2018-11-03T06:28:24.461Z,12.87
2018-11-03T06:30:57.616Z,11.53
2018-11-03T06:33:29.592Z,12.37
2018-11-03T06:36:05.199Z,12.70
2018-11-03T06:38:36.258Z,14.70
2018-11-03T06:41:07.881Z,14.37
2018-11-03T06:43:39.001Z,12.57
2018-11-03T06:46:10.251Z,14.17
2018-11-03T06:48:41.360Z,12.70
2018-11-03T06:51:12.690Z,15.97
2018-11-03T06:53:44.769Z,11.57
2018-11-03T06:56:16.528Z,11.33
2018-11-03T06:58:47.740Z,13.93
2018-11-03T07:01:18.814Z,12.97
2018-11-03T07:03:51.310Z,13.37
2018-11-03T07:06:22.876Z,12.20
2018-11-03T07:08:54.050Z,13.67
2018-11-03T07:11:25.195Z,11.63
2018-11-03T07:13:56.140Z,12.23
2018-11-03T07:16:27.535Z,12.43
2018-11-03T07:18:58.632Z,14.47
2018-11-03T07:21:30.363Z,11.90
2018-11-03T07:24:01.400Z,11.40
2018-11-03T07:26:34.783Z,15.37
2018-11-03T07:29:06.033Z,11.17
2018-11-03T07:31:37.116Z,13.20
2018-11-03T07:34:08.696Z,14.30
2018-11-03T07:36:40.087Z,12.73
2018-11-03T07:39:11.646Z,13.73
2018-11-03T07:41:42.811Z,14.23
2018-11-03T07:44:13.922Z,13.27
2018-11-03T07:46:45.069Z,15.93
2018-11-03T07:49:19.124Z,12.73
2018-11-03T07:51:50.440Z,12.03
2018-11-03T07:54:21.902Z,14.40
2018-11-03T07:56:53.405Z,13.83
2018-11-03T07:59:24.518Z,16.37
2018-11-03T08:01:55.876Z,12.67
2018-11-03T08:04:31.594Z,16.07
2018-11-03T08:07:02.962Z,14.53
2018-11-03T08:09:34.086Z,13.27
2018-11-03T08:12:05.204Z,17.27
2018-11-03T08:14:36.361Z,18.10
2018-11-03T08:17:07.712Z,14.87
2018-11-03T08:19:38.909Z,16.60
2018-11-03T08:22:10.387Z,13.90
2018-11-03T08:24:41.467Z,13.77
2018-11-03T08:27:12.567Z,12.80
2018-11-03T08:29:50.381Z,18.47
2018-11-03T08:32:21.388Z,13.80
2018-11-03T08:34:54.300Z,13.63
2018-11-03T08:37:25.719Z,13.37
2018-11-03T08:39:57.066Z,17.27
2018-11-03T08:42:28.149Z,14.00
2018-11-03T08:44:59.598Z,17.23
2018-11-03T08:47:31.541Z,16.50
2018-11-03T08:50:02.628Z,14.13
2018-11-03T08:52:33.708Z,12.00
2018-11-03T08:55:04.792Z,14.77
2018-11-03T08:57:35.839Z,15.47
2018-11-03T09:00:10.035Z,13.90
2018-11-03T09:02:41.445Z,14.80
2018-11-03T09:05:13.175Z,18.00
2018-11-03T09:07:44.340Z,13.27
2018-11-03T09:10:15.883Z,14.97
2018-11-03T09:12:46.925Z,12.90
2018-11-03T09:15:18.102Z,12.53
2018-11-03T09:17:49.491Z,14.17
2018-11-03T09:20:20.583Z,12.23
2018-11-03T09:22:52.014Z,14.87
2018-11-03T09:25:23.433Z,17.37
2018-11-03T09:27:54.472Z,12.60
2018-11-03T09:30:25.556Z,15.57
2018-11-03T09:32:57.399Z,17.20
2018-11-03T09:35:29.138Z,13.40
2018-11-03T09:38:00.164Z,13.43
2018-11-03T09:40:31.534Z,16.97
2018-11-03T09:43:03.448Z,14.33
2018-11-03T09:45:34.834Z,18.03
2018-11-03T09:48:06.967Z,14.17
2018-11-03T09:50:43.654Z,14.47
2018-11-03T09:53:20.384Z,14.20
2018-11-03T09:55:51.505Z,15.37
2018-11-03T09:58:22.861Z,15.17
2018-11-03T10:01:00.724Z,12.83
2018-11-03T10:03:31.945Z,14.40
2018-11-03T10:06:06.516Z,13.40
2018-11-03T10:08:37.620Z,14.20
2018-11-03T10:11:11.207Z,13.50
2018-11-03T10:13:42.622Z,14.80
2018-11-03T10:16:14.044Z,14.57
2018-11-03T10:18:45.143Z,13.13
2018-11-03T10:21:16.294Z,12.47
2018-11-03T10:23:48.203Z,10.57
2018-11-03T10:26:19.353Z,11.43
2018-11-03T10:28:55.220Z,11.93
2018-11-03T10:31:26.282Z,10.50
2018-11-03T10:33:57.428Z,13.87
2018-11-03T10:36:28.552Z,10.23
2018-11-03T10:39:00.222Z,9.50
2018-11-03T10:41:31.267Z,11.63
2018-11-03T10:44:04.083Z,9.17
2018-11-03T10:46:37.335Z,8.07
2018-11-03T10:49:16.152Z,8.87
2018-11-03T10:51:47.262Z,8.67
2018-11-03T10:54:18.620Z,8.37
2018-11-03T10:56:49.685Z,8.60
2018-11-03T10:59:20.775Z,7.27
2018-11-03T11:02:09.081Z,7.60
2018-11-03T11:04:57.681Z,7.13
2018-11-03T11:07:46.188Z,11.03
2018-11-03T11:10:34.815Z,5.53
2018-11-03T11:13:09.710Z,22.53
2018-11-03T11:15:40.814Z,15.00
2018-11-03T11:18:12.284Z,10.20
2018-11-03T11:20:43.335Z,7.80
2018-11-03T11:23:14.498Z,6.93
2018-11-03T11:25:45.508Z,7.10
2018-11-03T11:28:16.656Z,5.50
2018-11-03T11:30:48.165Z,6.03
2018-11-03T11:33:19.420Z,9.00
2018-11-03T11:35:50.455Z,11.30
2018-11-03T11:38:25.235Z,7.23
2018-11-03T11:40:56.765Z,7.17
2018-11-03T11:43:27.786Z,12.70
2018-11-03T11:45:59.145Z,8.70
2018-11-03T11:48:30.246Z,9.53
2018-11-03T11:51:01.668Z,5.63
2018-11-03T11:53:32.723Z,5.77
2018-11-03T11:56:04.147Z,5.27
2018-11-03T11:58:35.605Z,9.97
2018-11-03T12:01:07.042Z,6.80
2018-11-03T12:03:38.091Z,7.90
2018-11-03T12:06:09.330Z,13.43
2018-11-03T12:08:40.406Z,9.90
2018-11-03T12:11:11.891Z,8.87
2018-11-03T12:13:43.269Z,8.23
2018-11-03T12:16:14.818Z,10.67
2018-11-03T12:18:45.918Z,9.40
2018-11-03T12:21:17.015Z,6.37
2018-11-03T12:23:48.123Z,6.23
2018-11-03T12:26:19.525Z,7.20
2018-11-03T12:28:50.659Z,5.13
2018-11-03T12:31:21.763Z,5.03
2018-11-03T12:33:52.866Z,6.30
2018-11-03T12:36:24.278Z,5.93
2018-11-03T12:38:55.394Z,10.77
2018-11-03T12:41:26.728Z,7.40
2018-11-03T12:43:58.036Z,7.00
2018-11-03T12:46:29.085Z,6.23
2018-11-03T12:49:01.181Z,7.90
2018-11-03T12:51:49.974Z,6.53
2018-11-03T12:54:21.410Z,10.27
2018-11-03T12:56:52.476Z,4.77
2018-11-03T12:59:23.699Z,4.40
2018-11-03T13:01:57.647Z,5.40
2018-11-03T13:04:32.542Z,5.57
2018-11-03T13:07:08.451Z,4.53
2018-11-03T13:09:41.939Z,6.37
2018-11-03T13:12:12.666Z,3.27
2018-11-03T13:14:45.062Z,4.30
2018-11-03T13:17:16.206Z,3.67
2018-11-03T13:19:47.255Z,4.13
2018-11-03T13:22:24.027Z,3.10
2018-11-03T13:24:55.448Z,2.57
2018-11-03T13:27:26.481Z,3.47
2018-11-03T13:29:57.513Z,2.73
2018-11-03T13:32:28.977Z,4.43
2018-11-03T13:35:00.164Z,2.43
2018-11-03T13:37:31.815Z,4.53
2018-11-03T13:40:02.869Z,6.30
2018-11-03T13:42:33.966Z,10.73
2018-11-03T13:45:05.063Z,15.50
2018-11-03T13:47:39.411Z,5.00
2018-11-03T13:50:15.939Z,9.13
2018-11-03T13:52:49.208Z,12.60
2018-11-03T13:55:21.993Z,5.93
2018-11-03T13:57:53.005Z,6.53
2018-11-03T14:00:24.095Z,6.83
2018-11-03T14:02:55.244Z,4.83
2018-11-03T14:05:26.593Z,7.67
2018-11-03T14:07:57.965Z,9.30
2018-11-03T14:10:29.333Z,6.80
2018-11-03T14:13:00.549Z,7.23
2018-11-03T14:15:31.911Z,8.03
2018-11-03T14:18:02.974Z,12.97
2018-11-03T14:20:34.106Z,8.73
2018-11-03T14:23:05.157Z,8.17
2018-11-03T14:25:45.217Z,9.07
2018-11-03T14:28:16.279Z,8.73
2018-11-03T14:30:47.367Z,14.27
2018-11-03T14:33:20.291Z,11.33
2018-11-03T14:35:51.363Z,8.00
2018-11-03T14:38:22.468Z,9.73
2018-11-03T14:40:53.594Z,13.50
2018-11-03T14:43:24.620Z,7.37
2018-11-03T14:45:55.783Z,10.87
2018-11-03T14:48:27.249Z,8.57
2018-11-03T14:50:58.349Z,11.30
2018-11-03T14:53:29.762Z,12.43
2018-11-03T14:56:00.787Z,7.90
2018-11-03T14:58:31.886Z,9.87
2018-11-03T15:01:03.363Z,6.37
2018-11-03T15:03:34.488Z,11.27
2018-11-03T15:06:07.081Z,6.87
2018-11-03T15:08:38.242Z,11.40
2018-11-03T15:11:09.243Z,10.00
2018-11-03T15:13:40.645Z,10.10
2018-11-03T15:16:11.837Z,11.67
2018-11-03T15:18:42.983Z,9.37
2018-11-03T15:21:18.553Z,9.37
2018-11-03T15:23:50.830Z,10.37
2018-11-03T15:26:21.879Z,11.97
2018-11-03T15:28:55.054Z,13.23
2018-11-03T15:31:26.214Z,11.47
2018-11-03T15:33:57.468Z,10.97
2018-11-03T15:36:28.888Z,9.20
2018-11-03T15:39:00.126Z,10.57
2018-11-03T15:41:32.142Z,10.53
2018-11-03T15:44:03.117Z,11.03
2018-11-03T15:46:34.202Z,9.50
2018-11-03T15:49:05.266Z,10.50
2018-11-03T15:51:36.448Z,12.10
2018-11-03T15:54:07.975Z,12.47
2018-11-03T15:56:39.092Z,11.27
2018-11-03T15:59:10.579Z,9.23
2018-11-03T16:01:41.599Z,12.73
2018-11-03T16:04:12.831Z,11.03
2018-11-03T16:06:43.900Z,12.00
2018-11-03T16:09:14.975Z,11.73
2018-11-03T16:11:46.316Z,12.47
2018-11-03T16:14:17.335Z,11.50
2018-11-03T16:16:48.367Z,13.53
2018-11-03T16:19:19.400Z,8.07
2018-11-03T16:21:50.556Z,14.97
2018-11-03T16:24:21.514Z,10.63
2018-11-03T16:26:52.637Z,9.33
2018-11-03T16:29:23.759Z,11.27
2018-11-03T16:31:55.135Z,12.07
2018-11-03T16:34:26.177Z,11.20
2018-11-03T16:36:57.349Z,11.80
2018-11-03T16:39:28.396Z,12.27
2018-11-03T16:41:59.952Z,14.43
2018-11-03T16:44:31.285Z,12.03
2018-11-03T16:47:02.677Z,11.73
2018-11-03T16:49:33.777Z,13.40
2018-11-03T16:52:04.868Z,14.67
2018-11-03T16:54:36.306Z,12.93
2018-11-03T16:57:07.663Z,12.53
2018-11-03T16:59:38.761Z,13.67
2018-11-03T17:02:09.843Z,13.10
2018-11-03T17:04:40.921Z,12.83
2018-11-03T17:07:11.991Z,11.10
2018-11-03T17:09:43.335Z,12.30
2018-11-03T17:12:14.431Z,14.60
2018-11-03T17:14:45.470Z,14.77
2018-11-03T17:17:16.505Z,15.73
2018-11-03T17:19:48.377Z,17.27
2018-11-03T17:22:19.501Z,16.70
2018-11-03T17:24:51.124Z,14.17
2018-11-03T17:27:25.756Z,16.27
2018-11-03T17:29:56.790Z,19.20
2018-11-03T17:32:27.931Z,14.27
2018-11-03T17:34:59.836Z,18.60
2018-11-03T17:37:32.684Z,17.23
2018-11-03T17:40:08.816Z,16.30
2018-11-03T17:42:40.507Z,19.17
2018-11-03T17:45:12.563Z,14.67
2018-11-03T17:47:43.638Z,15.23
2018-11-03T17:50:15.078Z,15.17
2018-11-03T17:52:46.453Z,16.17
2018-11-03T17:55:20.002Z,19.37
2018-11-03T17:57:51.366Z,19.63
2018-11-03T18:00:25.071Z,15.23
2018-11-03T18:02:56.091Z,18.43
2018-11-03T18:05:29.129Z,15.50
2018-11-03T18:08:00.290Z,15.97
2018-11-03T18:10:31.316Z,16.43
2018-11-03T18:13:05.953Z,15.80
2018-11-03T18:15:37.318Z,17.83
2018-11-03T18:18:08.485Z,18.50
2018-11-03T18:20:39.498Z,15.60
2018-11-03T18:23:10.534Z,18.07
2018-11-03T18:25:41.558Z,20.03
2018-11-03T18:28:12.622Z,14.13
2018-11-03T18:30:44.185Z,16.30
2018-11-03T18:33:15.208Z,16.60
2018-11-03T18:35:46.575Z,16.07
2018-11-03T18:38:17.641Z,15.43
2018-11-03T18:40:48.710Z,17.70
2018-11-03T18:43:22.382Z,17.50
2018-11-03T18:45:53.630Z,21.87
2018-11-03T18:48:24.997Z,25.93
2018-11-03T18:50:56.105Z,27.97
2018-11-03T18:53:27.511Z,29.03
2018-11-03T18:55:58.533Z,26.27
2018-11-03T18:58:29.570Z,21.23
2018-11-03T19:01:00.727Z,19.30
2018-11-03T19:03:31.764Z,22.27
2018-11-03T19:06:02.803Z,22.43
2018-11-03T19:08:33.847Z,24.20
2018-11-03T19:11:05.034Z,29.23
2018-11-03T19:13:39.048Z,39.67
2018-11-03T19:16:10.140Z,26.90
2018-11-03T19:18:41.255Z,27.77
2018-11-03T19:21:16.356Z,24.93
2018-11-03T19:26:17.144Z,22.87
2018-11-03T19:28:48.263Z,18.93
2018-11-03T19:31:19.374Z,30.67
2018-11-03T19:33:50.781Z,25.17
2018-11-03T19:36:33.747Z,21.90
2018-11-03T19:39:08.403Z,24.00
2018-11-03T19:41:39.458Z,31.63
2018-11-03T19:44:11.066Z,25.30
2018-11-03T19:46:42.102Z,23.50
2018-11-03T19:49:13.500Z,23.03
2018-11-03T19:51:44.613Z,26.43
2018-11-03T19:54:17.511Z,25.13
2018-11-03T19:56:50.795Z,20.17
2018-11-03T19:59:21.756Z,22.43
2018-11-03T20:01:52.941Z,19.70
2018-11-03T20:04:23.967Z,20.57
2018-11-03T20:06:55.334Z,18.17
2018-11-03T20:09:26.399Z,21.57
2018-11-03T20:11:58.077Z,19.23
2018-11-03T20:14:29.300Z,18.73
2018-11-03T20:17:00.786Z,19.27
2018-11-03T20:19:31.882Z,22.73
2018-11-03T20:22:02.989Z,17.47
2018-11-03T20:24:34.811Z,18.30
2018-11-03T20:27:06.427Z,22.87
2018-11-03T20:29:37.748Z,21.43
2018-11-03T20:32:09.189Z,21.27
2018-11-03T20:34:40.291Z,20.87
2018-11-03T20:37:12.585Z,19.23
2018-11-03T20:39:44.372Z,19.50
2018-11-03T20:42:15.500Z,19.27
2018-11-03T20:44:50.066Z,17.50
2018-11-03T20:47:21.076Z,23.10
2018-11-03T20:49:52.440Z,17.33
2018-11-03T20:52:25.152Z,22.67
2018-11-03T20:54:56.567Z,20.83
2018-11-03T20:57:27.648Z,21.07
2018-11-03T20:59:59.321Z,18.33
2018-11-03T21:02:31.475Z,20.23
2018-11-03T21:05:03.354Z,20.03
2018-11-03T21:07:36.132Z,20.97
2018-11-03T21:10:07.243Z,21.50
2018-11-03T21:12:38.618Z,22.27
2018-11-03T21:15:09.699Z,19.30
2018-11-03T21:17:40.785Z,19.93
2018-11-03T21:20:11.912Z,19.13
2018-11-03T21:22:43.225Z,28.90
2018-11-03T21:25:14.364Z,20.53
2018-11-03T21:27:48.024Z,20.70
2018-11-03T21:30:19.200Z,20.33
2018-11-03T21:32:50.248Z,23.30
2018-11-03T21:35:21.583Z,21.77
2018-11-03T21:37:53.897Z,21.03
2018-11-03T21:40:25.202Z,21.07
2018-11-03T21:42:56.236Z,20.20
2018-11-03T21:45:27.653Z,21.00
2018-11-03T21:47:58.931Z,20.67
2018-11-03T21:50:30.374Z,18.73
2018-11-03T21:53:08.540Z,20.40
2018-11-03T21:55:39.807Z,21.37
2018-11-03T21:58:11.224Z,18.97
2018-11-03T22:00:43.683Z,19.13
2018-11-03T22:03:14.778Z,20.13
2018-11-03T22:05:45.929Z,20.60
2018-11-03T22:08:20.442Z,20.83
2018-11-03T22:10:51.995Z,21.43
2018-11-03T22:13:23.909Z,18.47
2018-11-03T22:15:55.055Z,21.90
2018-11-03T22:18:26.371Z,21.00
2018-11-03T22:20:57.473Z,25.27
2018-11-03T22:23:28.517Z,24.00
2018-11-03T22:26:04.429Z,21.97
2018-11-03T22:28:37.350Z,20.63
2018-11-03T22:31:08.429Z,23.37
2018-11-03T22:33:39.603Z,25.83
2018-11-03T22:36:10.646Z,22.50
2018-11-03T22:38:43.618Z,21.50
2018-11-03T22:41:15.096Z,21.60
2018-11-03T22:43:46.186Z,23.47
2018-11-03T22:46:17.274Z,18.90
2018-11-03T22:48:52.548Z,20.83
2018-11-03T22:51:25.034Z,21.23
2018-11-03T22:53:56.089Z,21.93
2018-11-03T22:56:30.033Z,19.67
2018-11-03T22:59:06.695Z,21.20
2018-11-03T23:01:59.416Z,18.63
2018-11-03T23:04:30.564Z,22.93
2018-11-03T23:07:01.720Z,22.07
2018-11-03T23:09:33.369Z,20.50
2018-11-03T23:12:05.060Z,20.37
2018-11-03T23:14:36.244Z,20.23
2018-11-03T23:17:07.661Z,22.43
2018-11-03T23:19:38.724Z,23.57
2018-11-03T23:22:12.761Z,20.17
2018-11-03T23:24:47.146Z,19.30
2018-11-03T23:27:22.064Z,18.37
2018-11-03T23:29:53.314Z,17.40
2018-11-03T23:32:24.593Z,22.23
2018-11-03T23:34:55.656Z,25.23
2018-11-03T23:37:29.541Z,22.80
2018-11-03T23:40:00.899Z,21.23
2018-11-03T23:42:31.942Z,23.47
2018-11-03T23:45:02.998Z,23.87
2018-11-03T23:47:34.045Z,18.10
2018-11-03T23:50:05.130Z,20.60
2018-11-03T23:52:36.621Z,27.57
2018-11-03T23:55:07.695Z,25.90
2018-11-03T23:57:39.186Z,27.67
